sensor_id;sensor_type;location;lat;lon;timestamp;temperature;humidity
23783;DHT22;12071;50.850;4.446;2022-12-16T00:01:20;-1.20;99.90
23783;DHT22;12071;50.850;4.446;2022-12-16T00:03:52;-1.10;99.90
23783;DHT22;12071;50.850;4.446;2022-12-16T00:06:19;-0.80;99.90
23783;DHT22;12071;50.850;4.446;2022-12-16T00:08:45;-0.60;99.90
23783;DHT22;12071;50.850;4.446;2022-12-16T00:11:11;-0.40;99.90
23783;DHT22;12071;50.850;4.446;2022-12-16T00:13:38;-0.10;99.90
23783;DHT22;12071;50.850;4.446;2022-12-16T00:16:06;-0.10;99.90
23783;DHT22;12071;50.850;4.446;2022-12-16T00:18:32;0.00;99.90
23783;DHT22;12071;50.850;4.446;2022-12-16T00:20:58;0.00;99.90
23783;DHT22;12071;50.850;4.446;2022-12-16T00:23:24;-0.50;99.90
23783;DHT22;12071;50.850;4.446;2022-12-16T00:25:49;-0.40;99.90
23783;DHT22;12071;50.850;4.446;2022-12-16T00:28:15;-0.50;99.90
23783;DHT22;12071;50.850;4.446;2022-12-16T00:30:42;-0.80;99.90
23783;DHT22;12071;50.850;4.446;2022-12-16T00:33:07;-0.40;99.90
23783;DHT22;12071;50.850;4.446;2022-12-16T00:35:33;0.10;99.90
23783;DHT22;12071;50.850;4.446;2022-12-16T00:37:59;0.20;99.90
23783;DHT22;12071;50.850;4.446;2022-12-16T00:40:25;0.30;99.90
23783;DHT22;12071;50.850;4.446;2022-12-16T00:42:50;0.30;99.90
23783;DHT22;12071;50.850;4.446;2022-12-16T00:45:16;0.10;99.90
23783;DHT22;12071;50.850;4.446;2022-12-16T00:47:42;0.30;99.90
23783;DHT22;12071;50.850;4.446;2022-12-16T00:50:08;0.40;99.90
23783;DHT22;12071;50.850;4.446;2022-12-16T00:52:34;0.30;99.90
23783;DHT22;12071;50.850;4.446;2022-12-16T00:55:00;0.10;99.90
23783;DHT22;12071;50.850;4.446;2022-12-16T00:57:25;-0.40;99.90
23783;DHT22;12071;50.850;4.446;2022-12-16T00:59:51;-0.20;99.90
23783;DHT22;12071;50.850;4.446;2022-12-16T01:02:16;-0.40;99.90
23783;DHT22;12071;50.850;4.446;2022-12-16T01:04:42;-0.20;99.90
23783;DHT22;12071;50.850;4.446;2022-12-16T01:07:08;-0.40;99.90
23783;DHT22;12071;50.850;4.446;2022-12-16T01:09:34;-0.60;99.90
23783;DHT22;12071;50.850;4.446;2022-12-16T01:11:59;-0.10;99.90
23783;DHT22;12071;50.850;4.446;2022-12-16T01:14:25;0.40;99.90
23783;DHT22;12071;50.850;4.446;2022-12-16T01:16:51;0.50;99.90
23783;DHT22;12071;50.850;4.446;2022-12-16T01:19:16;0.60;99.90
23783;DHT22;12071;50.850;4.446;2022-12-16T01:21:42;0.30;99.90
23783;DHT22;12071;50.850;4.446;2022-12-16T01:24:09;0.40;99.90
23783;DHT22;12071;50.850;4.446;2022-12-16T01:26:35;0.20;99.90
23783;DHT22;12071;50.850;4.446;2022-12-16T01:29:01;0.50;99.90
23783;DHT22;12071;50.850;4.446;2022-12-16T01:31:26;0.70;99.90
23783;DHT22;12071;50.850;4.446;2022-12-16T01:33:52;0.80;99.90
23783;DHT22;12071;50.850;4.446;2022-12-16T01:36:18;0.90;99.90
23783;DHT22;12071;50.850;4.446;2022-12-16T01:38:44;0.70;99.20
23783;DHT22;12071;50.850;4.446;2022-12-16T01:41:12;0.60;99.90
23783;DHT22;12071;50.850;4.446;2022-12-16T01:43:39;0.20;99.90
23783;DHT22;12071;50.850;4.446;2022-12-16T01:46:14;0.10;99.90
23783;DHT22;12071;50.850;4.446;2022-12-16T01:51:36;0.40;99.90
23783;DHT22;12071;50.850;4.446;2022-12-16T01:54:08;0.50;99.90
23783;DHT22;12071;50.850;4.446;2022-12-16T01:56:38;0.50;99.90
23783;DHT22;12071;50.850;4.446;2022-12-16T01:59:05;0.30;99.90
23783;DHT22;12071;50.850;4.446;2022-12-16T02:01:32;0.10;99.90
23783;DHT22;12071;50.850;4.446;2022-12-16T02:04:00;0.00;99.90
23783;DHT22;12071;50.850;4.446;2022-12-16T02:06:28;0.40;99.90
23783;DHT22;12071;50.850;4.446;2022-12-16T02:08:56;0.60;99.90
23783;DHT22;12071;50.850;4.446;2022-12-16T02:17:35;0.50;99.90
23783;DHT22;12071;50.850;4.446;2022-12-16T02:31:23;0.50;99.90
23783;DHT22;12071;50.850;4.446;2022-12-16T02:36:49;0.60;99.90
23783;DHT22;12071;50.850;4.446;2022-12-16T02:39:19;0.60;99.90
23783;DHT22;12071;50.850;4.446;2022-12-16T02:44:29;0.80;99.90
23783;DHT22;12071;50.850;4.446;2022-12-16T02:46:58;0.80;99.90
23783;DHT22;12071;50.850;4.446;2022-12-16T02:51:49;0.90;99.90
23783;DHT22;12071;50.850;4.446;2022-12-16T02:54:16;0.90;99.90
23783;DHT22;12071;50.850;4.446;2022-12-16T02:59:43;1.10;99.90
23783;DHT22;12071;50.850;4.446;2022-12-16T03:07:44;1.10;99.90
23783;DHT22;12071;50.850;4.446;2022-12-16T03:10:15;1.10;99.90
23783;DHT22;12071;50.850;4.446;2022-12-16T03:12:43;1.20;99.90
23783;DHT22;12071;50.850;4.446;2022-12-16T03:15:12;1.20;99.90
23783;DHT22;12071;50.850;4.446;2022-12-16T03:17:38;1.50;99.90
23783;DHT22;12071;50.850;4.446;2022-12-16T03:20:11;1.40;99.90
23783;DHT22;12071;50.850;4.446;2022-12-16T03:22:41;1.40;99.90
23783;DHT22;12071;50.850;4.446;2022-12-16T03:25:09;1.40;99.90
23783;DHT22;12071;50.850;4.446;2022-12-16T03:28:10;1.60;99.90
23783;DHT22;12071;50.850;4.446;2022-12-16T03:30:46;1.50;99.90
23783;DHT22;12071;50.850;4.446;2022-12-16T03:33:38;1.50;99.90
23783;DHT22;12071;50.850;4.446;2022-12-16T03:36:13;1.50;99.90
23783;DHT22;12071;50.850;4.446;2022-12-16T03:38:42;1.50;99.90
23783;DHT22;12071;50.850;4.446;2022-12-16T03:41:09;1.50;99.90
23783;DHT22;12071;50.850;4.446;2022-12-16T03:43:36;1.60;99.90
23783;DHT22;12071;50.850;4.446;2022-12-16T03:46:05;1.50;99.90
23783;DHT22;12071;50.850;4.446;2022-12-16T03:48:31;1.50;1.00
23783;DHT22;12071;50.850;4.446;2022-12-16T03:50:59;1.60;1.00
23783;DHT22;12071;50.850;4.446;2022-12-16T03:53:25;1.50;1.00
23783;DHT22;12071;50.850;4.446;2022-12-16T03:55:54;1.60;1.00
23783;DHT22;12071;50.850;4.446;2022-12-16T03:58:22;1.60;1.00
23783;DHT22;12071;50.850;4.446;2022-12-16T04:00:48;1.60;1.00
23783;DHT22;12071;50.850;4.446;2022-12-16T04:03:14;1.70;1.00
23783;DHT22;12071;50.850;4.446;2022-12-16T04:05:39;1.60;1.00
23783;DHT22;12071;50.850;4.446;2022-12-16T04:08:05;1.50;1.00
23783;DHT22;12071;50.850;4.446;2022-12-16T04:10:30;1.50;1.00
23783;DHT22;12071;50.850;4.446;2022-12-16T04:13:14;1.50;1.00
23783;DHT22;12071;50.850;4.446;2022-12-16T04:15:59;1.30;1.00
23783;DHT22;12071;50.850;4.446;2022-12-16T04:18:44;1.30;1.00
23783;DHT22;12071;50.850;4.446;2022-12-16T04:21:29;1.40;1.00
23783;DHT22;12071;50.850;4.446;2022-12-16T04:24:16;1.50;1.00
23783;DHT22;12071;50.850;4.446;2022-12-16T04:26:48;1.60;1.00
23783;DHT22;12071;50.850;4.446;2022-12-16T04:29:33;1.70;1.00
23783;DHT22;12071;50.850;4.446;2022-12-16T04:32:19;1.60;1.00
23783;DHT22;12071;50.850;4.446;2022-12-16T04:34:44;1.60;1.00
23783;DHT22;12071;50.850;4.446;2022-12-16T04:37:10;1.70;1.00
23783;DHT22;12071;50.850;4.446;2022-12-16T04:39:54;1.70;1.00
23783;DHT22;12071;50.850;4.446;2022-12-16T04:42:38;1.90;1.00
23783;DHT22;12071;50.850;4.446;2022-12-16T04:45:22;1.90;1.00
23783;DHT22;12071;50.850;4.446;2022-12-16T04:48:06;2.00;1.00
23783;DHT22;12071;50.850;4.446;2022-12-16T04:50:50;1.90;1.00
23783;DHT22;12071;50.850;4.446;2022-12-16T04:53:34;1.80;1.00
23783;DHT22;12071;50.850;4.446;2022-12-16T04:56:19;1.80;1.00
23783;DHT22;12071;50.850;4.446;2022-12-16T04:59:03;1.90;1.00
23783;DHT22;12071;50.850;4.446;2022-12-16T05:01:47;1.80;1.00
23783;DHT22;12071;50.850;4.446;2022-12-16T05:04:31;1.70;1.00
23783;DHT22;12071;50.850;4.446;2022-12-16T05:07:15;1.80;1.00
23783;DHT22;12071;50.850;4.446;2022-12-16T05:09:59;2.10;1.00
23783;DHT22;12071;50.850;4.446;2022-12-16T05:12:43;1.90;1.00
23783;DHT22;12071;50.850;4.446;2022-12-16T05:15:27;1.90;1.00
23783;DHT22;12071;50.850;4.446;2022-12-16T05:18:14;1.90;1.00
23783;DHT22;12071;50.850;4.446;2022-12-16T05:20:59;1.90;1.00
23783;DHT22;12071;50.850;4.446;2022-12-16T05:23:45;1.80;1.00
23783;DHT22;12071;50.850;4.446;2022-12-16T05:26:31;1.80;1.00
23783;DHT22;12071;50.850;4.446;2022-12-16T05:29:15;1.80;1.00
23783;DHT22;12071;50.850;4.446;2022-12-16T05:31:59;1.90;1.00
23783;DHT22;12071;50.850;4.446;2022-12-16T05:34:43;2.00;1.00
23783;DHT22;12071;50.850;4.446;2022-12-16T05:37:27;2.00;1.00
23783;DHT22;12071;50.850;4.446;2022-12-16T05:40:11;2.00;1.00
23783;DHT22;12071;50.850;4.446;2022-12-16T05:42:56;2.00;1.00
23783;DHT22;12071;50.850;4.446;2022-12-16T05:45:40;1.90;1.00
23783;DHT22;12071;50.850;4.446;2022-12-16T05:48:25;2.00;1.00
23783;DHT22;12071;50.850;4.446;2022-12-16T05:51:09;2.00;1.00
23783;DHT22;12071;50.850;4.446;2022-12-16T05:53:53;2.10;1.00
23783;DHT22;12071;50.850;4.446;2022-12-16T05:56:38;2.10;1.00
23783;DHT22;12071;50.850;4.446;2022-12-16T05:59:22;2.20;1.00
23783;DHT22;12071;50.850;4.446;2022-12-16T06:02:06;2.30;1.00
23783;DHT22;12071;50.850;4.446;2022-12-16T06:04:50;2.20;1.00
23783;DHT22;12071;50.850;4.446;2022-12-16T06:07:34;2.20;1.00
23783;DHT22;12071;50.850;4.446;2022-12-16T06:10:18;2.10;1.00
23783;DHT22;12071;50.850;4.446;2022-12-16T06:13:02;2.20;1.00
23783;DHT22;12071;50.850;4.446;2022-12-16T06:15:46;2.10;1.00
23783;DHT22;12071;50.850;4.446;2022-12-16T06:18:30;2.10;1.00
23783;DHT22;12071;50.850;4.446;2022-12-16T06:21:15;2.20;1.00
23783;DHT22;12071;50.850;4.446;2022-12-16T06:23:59;2.10;1.00
23783;DHT22;12071;50.850;4.446;2022-12-16T06:26:43;2.30;1.00
23783;DHT22;12071;50.850;4.446;2022-12-16T06:29:27;2.20;1.00
23783;DHT22;12071;50.850;4.446;2022-12-16T06:32:11;2.10;1.00
23783;DHT22;12071;50.850;4.446;2022-12-16T06:34:55;2.20;1.00
23783;DHT22;12071;50.850;4.446;2022-12-16T06:37:41;2.10;1.00
23783;DHT22;12071;50.850;4.446;2022-12-16T06:40:25;2.20;1.00
23783;DHT22;12071;50.850;4.446;2022-12-16T06:43:09;2.20;1.00
23783;DHT22;12071;50.850;4.446;2022-12-16T06:45:54;2.10;1.00
23783;DHT22;12071;50.850;4.446;2022-12-16T06:48:39;2.10;1.00
23783;DHT22;12071;50.850;4.446;2022-12-16T06:51:23;2.00;1.00
23783;DHT22;12071;50.850;4.446;2022-12-16T06:54:07;2.10;1.00
23783;DHT22;12071;50.850;4.446;2022-12-16T06:56:51;2.10;1.00
23783;DHT22;12071;50.850;4.446;2022-12-16T06:59:36;2.00;1.00
23783;DHT22;12071;50.850;4.446;2022-12-16T07:02:20;2.00;1.00
23783;DHT22;12071;50.850;4.446;2022-12-16T07:05:04;2.00;1.00
23783;DHT22;12071;50.850;4.446;2022-12-16T07:07:49;2.10;1.00
23783;DHT22;12071;50.850;4.446;2022-12-16T07:10:34;2.00;1.00
23783;DHT22;12071;50.850;4.446;2022-12-16T07:13:19;2.00;1.00
23783;DHT22;12071;50.850;4.446;2022-12-16T07:16:22;2.10;1.00
23783;DHT22;12071;50.850;4.446;2022-12-16T07:19:06;2.00;1.00
23783;DHT22;12071;50.850;4.446;2022-12-16T07:21:52;2.00;1.00
23783;DHT22;12071;50.850;4.446;2022-12-16T07:24:37;2.00;1.00
23783;DHT22;12071;50.850;4.446;2022-12-16T07:27:21;2.10;1.00
23783;DHT22;12071;50.850;4.446;2022-12-16T07:30:05;2.20;1.00
23783;DHT22;12071;50.850;4.446;2022-12-16T07:32:49;2.20;1.00
23783;DHT22;12071;50.850;4.446;2022-12-16T07:35:33;2.10;1.00
23783;DHT22;12071;50.850;4.446;2022-12-16T07:38:18;2.10;1.00
23783;DHT22;12071;50.850;4.446;2022-12-16T07:41:02;2.00;1.00
23783;DHT22;12071;50.850;4.446;2022-12-16T07:43:50;2.10;1.00
23783;DHT22;12071;50.850;4.446;2022-12-16T07:46:35;2.00;1.00
23783;DHT22;12071;50.850;4.446;2022-12-16T07:49:19;2.00;1.00
23783;DHT22;12071;50.850;4.446;2022-12-16T07:52:03;2.00;1.00
23783;DHT22;12071;50.850;4.446;2022-12-16T07:54:47;1.90;1.00
23783;DHT22;12071;50.850;4.446;2022-12-16T07:57:31;1.80;1.00
23783;DHT22;12071;50.850;4.446;2022-12-16T08:00:16;1.90;1.00
23783;DHT22;12071;50.850;4.446;2022-12-16T08:03:00;2.00;1.00
23783;DHT22;12071;50.850;4.446;2022-12-16T08:05:44;2.30;1.00
23783;DHT22;12071;50.850;4.446;2022-12-16T08:08:28;2.30;1.00
23783;DHT22;12071;50.850;4.446;2022-12-16T08:11:12;2.10;1.00
23783;DHT22;12071;50.850;4.446;2022-12-16T08:13:56;2.20;1.00
23783;DHT22;12071;50.850;4.446;2022-12-16T08:16:40;2.20;1.00
23783;DHT22;12071;50.850;4.446;2022-12-16T08:19:25;2.30;1.00
23783;DHT22;12071;50.850;4.446;2022-12-16T08:22:09;2.30;1.00
23783;DHT22;12071;50.850;4.446;2022-12-16T08:24:54;2.30;1.00
23783;DHT22;12071;50.850;4.446;2022-12-16T08:27:38;2.50;1.00
23783;DHT22;12071;50.850;4.446;2022-12-16T08:30:23;2.40;1.00
23783;DHT22;12071;50.850;4.446;2022-12-16T08:33:07;2.40;1.00
23783;DHT22;12071;50.850;4.446;2022-12-16T08:35:51;2.40;1.00
23783;DHT22;12071;50.850;4.446;2022-12-16T08:38:35;2.00;1.00
23783;DHT22;12071;50.850;4.446;2022-12-16T08:41:19;2.00;1.00
23783;DHT22;12071;50.850;4.446;2022-12-16T08:44:03;2.30;1.00
23783;DHT22;12071;50.850;4.446;2022-12-16T08:46:48;2.20;1.00
23783;DHT22;12071;50.850;4.446;2022-12-16T08:49:32;2.00;1.00
23783;DHT22;12071;50.850;4.446;2022-12-16T08:52:16;2.20;1.00
23783;DHT22;12071;50.850;4.446;2022-12-16T08:55:00;2.00;1.00
23783;DHT22;12071;50.850;4.446;2022-12-16T08:57:52;2.10;1.00
23783;DHT22;12071;50.850;4.446;2022-12-16T09:00:37;2.30;1.00
23783;DHT22;12071;50.850;4.446;2022-12-16T09:03:21;2.40;1.00
23783;DHT22;12071;50.850;4.446;2022-12-16T09:06:05;2.60;1.00
23783;DHT22;12071;50.850;4.446;2022-12-16T09:08:49;2.60;1.00
23783;DHT22;12071;50.850;4.446;2022-12-16T09:11:33;2.70;1.00
23783;DHT22;12071;50.850;4.446;2022-12-16T09:14:17;2.90;1.00
23783;DHT22;12071;50.850;4.446;2022-12-16T09:17:01;2.80;1.00
23783;DHT22;12071;50.850;4.446;2022-12-16T09:19:45;2.70;1.00
23783;DHT22;12071;50.850;4.446;2022-12-16T09:22:29;2.40;1.00
23783;DHT22;12071;50.850;4.446;2022-12-16T09:25:16;2.30;1.00
23783;DHT22;12071;50.850;4.446;2022-12-16T09:28:01;2.20;1.00
23783;DHT22;12071;50.850;4.446;2022-12-16T09:30:45;2.60;1.00
23783;DHT22;12071;50.850;4.446;2022-12-16T09:33:29;2.60;1.00
23783;DHT22;12071;50.850;4.446;2022-12-16T09:36:13;2.50;1.00
23783;DHT22;12071;50.850;4.446;2022-12-16T09:38:57;2.90;1.00
23783;DHT22;12071;50.850;4.446;2022-12-16T09:41:42;2.90;1.00
23783;DHT22;12071;50.850;4.446;2022-12-16T09:44:46;2.90;1.00
23783;DHT22;12071;50.850;4.446;2022-12-16T09:48:02;3.00;1.00
23783;DHT22;12071;50.850;4.446;2022-12-16T09:50:51;3.40;1.00
23783;DHT22;12071;50.850;4.446;2022-12-16T09:53:37;3.40;1.00
23783;DHT22;12071;50.850;4.446;2022-12-16T09:56:30;3.60;1.00
23783;DHT22;12071;50.850;4.446;2022-12-16T09:59:20;3.30;1.00
23783;DHT22;12071;50.850;4.446;2022-12-16T10:02:12;3.30;1.00
23783;DHT22;12071;50.850;4.446;2022-12-16T10:04:59;3.30;1.00
23783;DHT22;12071;50.850;4.446;2022-12-16T10:07:59;3.10;1.00
23783;DHT22;12071;50.850;4.446;2022-12-16T10:10:55;3.40;1.00
23783;DHT22;12071;50.850;4.446;2022-12-16T10:13:51;3.30;1.00
23783;DHT22;12071;50.850;4.446;2022-12-16T10:16:49;3.30;1.00
23783;DHT22;12071;50.850;4.446;2022-12-16T10:23:12;3.40;1.00
23783;DHT22;12071;50.850;4.446;2022-12-16T10:26:27;3.30;1.00
23783;DHT22;12071;50.850;4.446;2022-12-16T10:29:18;2.90;1.00
23783;DHT22;12071;50.850;4.446;2022-12-16T10:32:25;2.80;1.00
23783;DHT22;12071;50.850;4.446;2022-12-16T10:38:42;2.70;1.00
23783;DHT22;12071;50.850;4.446;2022-12-16T10:41:32;2.80;1.00
23783;DHT22;12071;50.850;4.446;2022-12-16T10:44:23;2.70;1.00
23783;DHT22;12071;50.850;4.446;2022-12-16T10:47:24;2.70;1.00
23783;DHT22;12071;50.850;4.446;2022-12-16T10:50:12;3.00;1.00
23783;DHT22;12071;50.850;4.446;2022-12-16T10:53:17;3.30;1.00
23783;DHT22;12071;50.850;4.446;2022-12-16T10:59:17;3.50;1.00
23783;DHT22;12071;50.850;4.446;2022-12-16T11:02:04;3.30;1.00
23783;DHT22;12071;50.850;4.446;2022-12-16T11:04:49;3.30;1.00
23783;DHT22;12071;50.850;4.446;2022-12-16T11:07:35;3.20;1.00
23783;DHT22;12071;50.850;4.446;2022-12-16T11:13:34;3.20;1.00
23783;DHT22;12071;50.850;4.446;2022-12-16T11:16:27;3.60;1.00
23783;DHT22;12071;50.850;4.446;2022-12-16T11:22:19;3.80;99.90
23783;DHT22;12071;50.850;4.446;2022-12-16T11:25:18;3.90;99.90
23783;DHT22;12071;50.850;4.446;2022-12-16T11:28:14;3.90;99.90
23783;DHT22;12071;50.850;4.446;2022-12-16T11:31:02;4.10;99.90
23783;DHT22;12071;50.850;4.446;2022-12-16T11:33:49;4.00;99.90
23783;DHT22;12071;50.850;4.446;2022-12-16T11:36:35;3.80;99.90
23783;DHT22;12071;50.850;4.446;2022-12-16T11:39:22;4.00;99.90
23783;DHT22;12071;50.850;4.446;2022-12-16T11:42:11;3.90;99.90
23783;DHT22;12071;50.850;4.446;2022-12-16T11:45:01;3.90;99.90
23783;DHT22;12071;50.850;4.446;2022-12-16T11:47:53;4.20;99.90
23783;DHT22;12071;50.850;4.446;2022-12-16T11:50:53;3.90;99.90
23783;DHT22;12071;50.850;4.446;2022-12-16T11:54:08;4.00;99.90
23783;DHT22;12071;50.850;4.446;2022-12-16T11:56:55;3.70;99.90
23783;DHT22;12071;50.850;4.446;2022-12-16T11:59:53;3.80;99.90
23783;DHT22;12071;50.850;4.446;2022-12-16T12:03:26;3.60;99.90
23783;DHT22;12071;50.850;4.446;2022-12-16T12:09:06;3.00;1.00
23783;DHT22;12071;50.850;4.446;2022-12-16T12:12:41;3.10;1.00
23783;DHT22;12071;50.850;4.446;2022-12-16T12:18:31;3.40;99.90
23783;DHT22;12071;50.850;4.446;2022-12-16T12:27:08;3.80;99.90
23783;DHT22;12071;50.850;4.446;2022-12-16T12:30:15;3.90;99.90
23783;DHT22;12071;50.850;4.446;2022-12-16T12:36:21;3.80;99.90
23783;DHT22;12071;50.850;4.446;2022-12-16T12:39:23;3.80;99.90
23783;DHT22;12071;50.850;4.446;2022-12-16T12:49:02;4.30;99.90
23783;DHT22;12071;50.850;4.446;2022-12-16T12:51:39;4.30;99.90
23783;DHT22;12071;50.850;4.446;2022-12-16T12:55:00;3.90;99.90
23783;DHT22;12071;50.850;4.446;2022-12-16T12:57:48;4.20;99.90
23783;DHT22;12071;50.850;4.446;2022-12-16T13:00:46;3.90;99.90
23783;DHT22;12071;50.850;4.446;2022-12-16T13:03:36;3.90;99.90
23783;DHT22;12071;50.850;4.446;2022-12-16T13:06:22;3.90;99.90
23783;DHT22;12071;50.850;4.446;2022-12-16T13:09:35;4.20;99.90
23783;DHT22;12071;50.850;4.446;2022-12-16T13:12:30;4.30;99.90
23783;DHT22;12071;50.850;4.446;2022-12-16T13:20:51;4.30;1.00
23783;DHT22;12071;50.850;4.446;2022-12-16T13:23:45;4.50;10.70
23783;DHT22;12071;50.850;4.446;2022-12-16T13:26:32;4.70;1.70
23783;DHT22;12071;50.850;4.446;2022-12-16T13:29:28;4.50;1.00
23783;DHT22;12071;50.850;4.446;2022-12-16T13:32:25;4.50;1.00
23783;DHT22;12071;50.850;4.446;2022-12-16T13:38:00;5.00;1.00
23783;DHT22;12071;50.850;4.446;2022-12-16T13:40:56;5.20;99.90
23783;DHT22;12071;50.850;4.446;2022-12-16T13:43:58;5.70;99.90
23783;DHT22;12071;50.850;4.446;2022-12-16T13:55:28;5.10;99.90
23783;DHT22;12071;50.850;4.446;2022-12-16T14:01:36;4.60;99.90
23783;DHT22;12071;50.850;4.446;2022-12-16T14:04:34;4.60;99.90
23783;DHT22;12071;50.850;4.446;2022-12-16T14:07:21;4.80;99.90
23783;DHT22;12071;50.850;4.446;2022-12-16T14:10:38;4.80;99.90
23783;DHT22;12071;50.850;4.446;2022-12-16T14:13:32;4.90;99.90
23783;DHT22;12071;50.850;4.446;2022-12-16T14:25:23;5.70;97.30
23783;DHT22;12071;50.850;4.446;2022-12-16T14:28:28;5.40;92.30
23783;DHT22;12071;50.850;4.446;2022-12-16T14:31:23;5.40;79.30
23783;DHT22;12071;50.850;4.446;2022-12-16T14:37:36;5.50;71.40
23783;DHT22;12071;50.850;4.446;2022-12-16T14:43:17;5.40;4.60
23783;DHT22;12071;50.850;4.446;2022-12-16T14:46:02;5.30;99.90
23783;DHT22;12071;50.850;4.446;2022-12-16T14:48:47;5.30;99.90
23783;DHT22;12071;50.850;4.446;2022-12-16T14:51:37;5.20;99.90
23783;DHT22;12071;50.850;4.446;2022-12-16T14:54:37;5.20;99.90
23783;DHT22;12071;50.850;4.446;2022-12-16T14:57:27;5.10;99.90
23783;DHT22;12071;50.850;4.446;2022-12-16T15:00:23;4.90;99.90
23783;DHT22;12071;50.850;4.446;2022-12-16T15:03:17;4.70;99.90
23783;DHT22;12071;50.850;4.446;2022-12-16T15:06:05;4.60;99.90
23783;DHT22;12071;50.850;4.446;2022-12-16T15:09:03;4.50;99.90
23783;DHT22;12071;50.850;4.446;2022-12-16T15:11:51;4.50;1.00
23783;DHT22;12071;50.850;4.446;2022-12-16T15:14:38;4.50;99.90
23783;DHT22;12071;50.850;4.446;2022-12-16T15:17:50;4.40;1.00
23783;DHT22;12071;50.850;4.446;2022-12-16T15:20:39;4.20;1.00
23783;DHT22;12071;50.850;4.446;2022-12-16T15:23:30;4.30;1.00
23783;DHT22;12071;50.850;4.446;2022-12-16T15:26:23;4.20;1.00
23783;DHT22;12071;50.850;4.446;2022-12-16T15:29:40;3.90;1.00
23783;DHT22;12071;50.850;4.446;2022-12-16T15:35:30;3.50;1.00
23783;DHT22;12071;50.850;4.446;2022-12-16T15:41:04;3.30;87.40
23783;DHT22;12071;50.850;4.446;2022-12-16T15:43:48;3.30;99.90
23783;DHT22;12071;50.850;4.446;2022-12-16T15:46:33;3.20;99.90
23783;DHT22;12071;50.850;4.446;2022-12-16T15:49:30;3.00;99.90
23783;DHT22;12071;50.850;4.446;2022-12-16T15:52:43;2.90;99.90
23783;DHT22;12071;50.850;4.446;2022-12-16T15:55:38;2.90;99.90
23783;DHT22;12071;50.850;4.446;2022-12-16T15:58:26;2.80;99.90
23783;DHT22;12071;50.850;4.446;2022-12-16T16:01:13;2.80;99.90
23783;DHT22;12071;50.850;4.446;2022-12-16T16:03:58;2.70;99.90
23783;DHT22;12071;50.850;4.446;2022-12-16T16:06:52;2.50;99.90
23783;DHT22;12071;50.850;4.446;2022-12-16T16:09:38;2.40;99.90
23783;DHT22;12071;50.850;4.446;2022-12-16T16:12:23;2.40;99.90
23783;DHT22;12071;50.850;4.446;2022-12-16T16:15:11;2.40;99.90
23783;DHT22;12071;50.850;4.446;2022-12-16T16:18:01;2.30;99.90
23783;DHT22;12071;50.850;4.446;2022-12-16T16:20:46;2.30;99.90
23783;DHT22;12071;50.850;4.446;2022-12-16T16:23:30;2.20;99.90
23783;DHT22;12071;50.850;4.446;2022-12-16T16:26:16;2.30;99.90
23783;DHT22;12071;50.850;4.446;2022-12-16T16:29:01;2.30;99.90
23783;DHT22;12071;50.850;4.446;2022-12-16T16:31:45;2.10;99.90
23783;DHT22;12071;50.850;4.446;2022-12-16T16:34:29;1.90;99.90
23783;DHT22;12071;50.850;4.446;2022-12-16T16:37:16;1.90;99.90
23783;DHT22;12071;50.850;4.446;2022-12-16T16:40:15;2.00;99.90
23783;DHT22;12071;50.850;4.446;2022-12-16T16:43:07;1.90;99.90
23783;DHT22;12071;50.850;4.446;2022-12-16T16:45:56;1.90;99.90
23783;DHT22;12071;50.850;4.446;2022-12-16T16:48:40;1.80;99.90
23783;DHT22;12071;50.850;4.446;2022-12-16T16:51:25;1.70;99.90
23783;DHT22;12071;50.850;4.446;2022-12-16T16:54:09;1.60;99.90
23783;DHT22;12071;50.850;4.446;2022-12-16T16:56:53;1.50;99.90
23783;DHT22;12071;50.850;4.446;2022-12-16T16:59:38;1.50;99.90
23783;DHT22;12071;50.850;4.446;2022-12-16T17:02:23;1.40;99.90
23783;DHT22;12071;50.850;4.446;2022-12-16T17:05:11;1.50;99.90
23783;DHT22;12071;50.850;4.446;2022-12-16T17:07:55;1.50;99.90
23783;DHT22;12071;50.850;4.446;2022-12-16T17:10:40;1.60;99.90
23783;DHT22;12071;50.850;4.446;2022-12-16T17:13:24;1.80;99.90
23783;DHT22;12071;50.850;4.446;2022-12-16T17:16:10;1.70;99.90
23783;DHT22;12071;50.850;4.446;2022-12-16T17:18:54;1.60;99.90
23783;DHT22;12071;50.850;4.446;2022-12-16T17:21:38;1.50;99.90
23783;DHT22;12071;50.850;4.446;2022-12-16T17:24:22;1.30;99.90
23783;DHT22;12071;50.850;4.446;2022-12-16T17:27:18;1.60;99.90
23783;DHT22;12071;50.850;4.446;2022-12-16T17:30:06;1.70;99.90
23783;DHT22;12071;50.850;4.446;2022-12-16T17:32:50;1.40;99.90
23783;DHT22;12071;50.850;4.446;2022-12-16T17:35:34;1.50;99.90
23783;DHT22;12071;50.850;4.446;2022-12-16T17:38:18;1.60;99.90
23783;DHT22;12071;50.850;4.446;2022-12-16T17:41:02;1.50;99.90
23783;DHT22;12071;50.850;4.446;2022-12-16T17:43:46;1.30;99.90
23783;DHT22;12071;50.850;4.446;2022-12-16T17:46:30;1.30;99.90
23783;DHT22;12071;50.850;4.446;2022-12-16T17:49:14;1.30;99.90
23783;DHT22;12071;50.850;4.446;2022-12-16T17:51:58;1.20;99.90
23783;DHT22;12071;50.850;4.446;2022-12-16T17:54:42;1.00;99.90
23783;DHT22;12071;50.850;4.446;2022-12-16T17:57:26;0.90;99.90
23783;DHT22;12071;50.850;4.446;2022-12-16T18:00:11;1.00;99.90
23783;DHT22;12071;50.850;4.446;2022-12-16T18:02:55;1.00;99.90
23783;DHT22;12071;50.850;4.446;2022-12-16T18:05:59;0.90;99.90
23783;DHT22;12071;50.850;4.446;2022-12-16T18:08:43;1.10;99.90
23783;DHT22;12071;50.850;4.446;2022-12-16T18:11:27;1.00;99.90
23783;DHT22;12071;50.850;4.446;2022-12-16T18:14:11;0.70;99.90
23783;DHT22;12071;50.850;4.446;2022-12-16T18:16:57;0.60;99.90
23783;DHT22;12071;50.850;4.446;2022-12-16T18:19:42;0.50;1.00
23783;DHT22;12071;50.850;4.446;2022-12-16T18:22:26;0.70;1.00
23783;DHT22;12071;50.850;4.446;2022-12-16T18:25:10;0.70;1.00
23783;DHT22;12071;50.850;4.446;2022-12-16T18:27:54;0.70;99.90
23783;DHT22;12071;50.850;4.446;2022-12-16T18:30:38;0.60;99.90
23783;DHT22;12071;50.850;4.446;2022-12-16T18:33:22;0.70;99.90
23783;DHT22;12071;50.850;4.446;2022-12-16T18:36:06;0.80;99.90
23783;DHT22;12071;50.850;4.446;2022-12-16T18:38:50;0.90;99.90
23783;DHT22;12071;50.850;4.446;2022-12-16T18:41:40;0.80;99.90
23783;DHT22;12071;50.850;4.446;2022-12-16T18:44:25;0.60;99.90
23783;DHT22;12071;50.850;4.446;2022-12-16T18:47:09;0.40;99.90
23783;DHT22;12071;50.850;4.446;2022-12-16T18:49:53;0.30;1.00
23783;DHT22;12071;50.850;4.446;2022-12-16T18:52:37;0.20;1.00
23783;DHT22;12071;50.850;4.446;2022-12-16T18:55:38;0.40;1.00
23783;DHT22;12071;50.850;4.446;2022-12-16T18:58:36;0.40;1.00
23783;DHT22;12071;50.850;4.446;2022-12-16T19:01:20;0.30;1.00
23783;DHT22;12071;50.850;4.446;2022-12-16T19:04:04;0.30;1.00
23783;DHT22;12071;50.850;4.446;2022-12-16T19:06:48;0.40;1.00
23783;DHT22;12071;50.850;4.446;2022-12-16T19:09:32;0.30;1.00
23783;DHT22;12071;50.850;4.446;2022-12-16T19:12:16;0.30;1.00
23783;DHT22;12071;50.850;4.446;2022-12-16T19:15:00;0.20;1.00
23783;DHT22;12071;50.850;4.446;2022-12-16T19:17:44;0.10;1.00
23783;DHT22;12071;50.850;4.446;2022-12-16T19:20:28;0.10;1.00
23783;DHT22;12071;50.850;4.446;2022-12-16T19:23:13;0.10;1.00
23783;DHT22;12071;50.850;4.446;2022-12-16T19:25:59;0.00;1.00
23783;DHT22;12071;50.850;4.446;2022-12-16T19:28:43;0.10;1.00
23783;DHT22;12071;50.850;4.446;2022-12-16T19:31:27;0.00;1.00
23783;DHT22;12071;50.850;4.446;2022-12-16T19:34:11;0.00;1.00